Terminal Aerodrome Forecast
Issued by NWS

Home | Current Version | Previous Version | Text Only | Print | Product List | Glossary On
Versions: 1 2 3 4 5 6 7 8 9 10 11 12 13 14 15 16 17 18 19 20 21 22 23
136
FTUS46 KPDT 211738
TAFBDN
TAF
KBDN 211738Z 2118/2218 22016G25KT P6SM VCSH BKN030 OVC040
     FM211900 26018G26KT P6SM SCT035 BKN050 OVC070
     FM220100 25010KT P6SM -SHRA BKN030 BKN045
     FM220600 VRB04KT P6SM SCT045=

USA.gov is the U.S. government's official web portal to all federal, state and local government web resources and services.